Time;durP1;ratioP1;P1;durP2;ratioP2;P2;SDS_P1;SDS_P2;PMS_P1;PMS_P2;Temp;Humidity;BMP_temperature;BMP_pressure;BME280_temperature;BME280_humidity;BME280_pressure;Samples;Min_cycle;Max_cycle;Signal;HPM_P1;HPM_P2
2023/06/17 00:01:25;;;;;;;5.38;3.30;;;;;;;16.12;48.53;101492.97;4948459;28;20202;-76
2023/06/17 00:04:11;;;;;;;6.93;3.53;;;;;;;16.05;49.09;101495.03;4947377;28;20060;-76
2023/06/17 00:06:57;;;;;;;6.55;3.58;;;;;;;15.98;48.76;101488.25;4946976;28;20512;-76
2023/06/17 00:09:44;;;;;;;6.03;3.65;;;;;;;15.89;49.38;101486.84;4951774;28;20060;-75
2023/06/17 00:12:31;;;;;;;6.65;3.90;;;;;;;15.83;49.21;101490.59;4947541;28;20048;-76
2023/06/17 00:15:17;;;;;;;7.18;3.60;;;;;;;15.78;49.57;101497.91;4949095;28;20126;-76
2023/06/17 00:18:05;;;;;;;6.88;3.70;;;;;;;15.73;49.73;101494.56;4941093;28;20060;-76
2023/06/17 00:20:53;;;;;;;5.65;3.92;;;;;;;15.70;49.90;101492.06;4945408;28;20052;-76
2023/06/17 00:23:38;;;;;;;5.50;3.65;;;;;;;15.65;49.59;101488.72;4947008;28;20052;-76
2023/06/17 00:26:24;;;;;;;6.25;3.80;;;;;;;15.63;50.53;101483.47;4950229;28;20132;-75
2023/06/17 00:29:09;;;;;;;5.47;3.30;;;;;;;15.60;50.56;101483.59;4947209;28;20131;-75
2023/06/17 00:31:56;;;;;;;6.95;4.22;;;;;;;15.56;50.93;101484.66;4946944;29;20056;-75
2023/06/17 00:34:41;;;;;;;5.25;4.00;;;;;;;15.51;51.32;101476.00;4960045;28;21166;-75
2023/06/17 00:37:27;;;;;;;6.25;3.97;;;;;;;15.47;51.51;101474.38;4945344;28;20047;-75
2023/06/17 00:40:12;;;;;;;4.93;3.97;;;;;;;15.41;51.73;101480.84;4949025;28;20060;-75
2023/06/17 00:42:58;;;;;;;8.13;3.83;;;;;;;15.36;52.18;101475.69;4961562;28;20099;-75
2023/06/17 00:45:43;;;;;;;7.72;3.72;;;;;;;15.31;52.35;101472.38;4929934;28;20064;-77
2023/06/17 00:48:29;;;;;;;6.82;4.13;;;;;;;15.28;52.54;101467.16;4944404;28;20110;-77
2023/06/17 00:51:15;;;;;;;5.68;3.55;;;;;;;15.23;52.43;101469.16;4948426;28;20198;-78
2023/06/17 00:54:03;;;;;;;7.38;3.97;;;;;;;15.17;52.64;101472.03;4944420;28;20059;-77
2023/06/17 00:56:52;;;;;;;5.53;3.50;;;;;;;15.09;53.08;101471.47;4949746;28;20098;-77
2023/06/17 00:59:38;;;;;;;6.30;3.50;;;;;;;15.03;53.82;101472.59;4948305;28;20593;-75
2023/06/17 01:02:25;;;;;;;4.53;4.03;;;;;;;14.96;54.26;101469.28;4947682;28;20560;-76
2023/06/17 01:05:14;;;;;;;5.32;4.00;;;;;;;14.92;53.93;101470.34;4948452;28;20166;-77
2023/06/17 01:08:19;;;;;;;8.73;4.65;;;;;;;14.85;54.30;101461.75;4946697;28;20056;-76
2023/06/17 01:11:12;;;;;;;8.87;4.53;;;;;;;14.86;54.29;101468.78;4955226;28;20116;-76
2023/06/17 01:13:58;;;;;;;12.63;4.80;;;;;;;14.84;54.97;101468.00;4941780;28;20750;-77
2023/06/17 01:16:50;;;;;;;6.88;4.60;;;;;;;14.83;55.27;101466.25;4949821;28;20146;-78
2023/06/17 01:19:38;;;;;;;6.43;4.30;;;;;;;14.81;55.15;101465.44;4954297;28;20056;-76
2023/06/17 01:22:25;;;;;;;7.18;4.43;;;;;;;14.79;55.31;101466.44;4935458;28;20067;-76
2023/06/17 01:25:13;;;;;;;5.40;4.70;;;;;;;14.78;55.33;101467.34;4945912;28;20040;-76
2023/06/17 01:28:10;;;;;;;8.38;4.30;;;;;;;14.74;55.68;101461.31;4949645;28;20063;-76
2023/06/17 01:30:56;;;;;;;7.25;4.32;;;;;;;14.72;55.85;101464.03;4941027;28;20063;-75
2023/06/17 01:33:47;;;;;;;5.68;4.05;;;;;;;14.70;55.71;101463.22;4947149;28;20063;-75
2023/06/17 01:36:37;;;;;;;6.50;4.47;;;;;;;14.69;56.02;101465.94;4947816;28;20052;-77
2023/06/17 01:39:26;;;;;;;10.13;4.40;;;;;;;14.68;56.16;101461.53;4944334;28;20047;-76
2023/06/17 01:42:20;;;;;;;6.68;4.43;;;;;;;14.66;56.60;101463.34;4947037;28;20063;-76
2023/06/17 01:45:07;;;;;;;9.25;4.00;;;;;;;14.64;56.77;101466.06;4959917;28;20051;-76
2023/06/17 01:47:53;;;;;;;5.25;4.20;;;;;;;14.62;57.14;101464.38;4956033;28;20538;-76
2023/06/17 01:50:39;;;;;;;6.45;4.10;;;;;;;14.59;57.81;101460.06;4940918;28;20135;-76
2023/06/17 01:53:27;;;;;;;6.00;3.90;;;;;;;14.53;57.80;101469.09;4947655;28;20071;-75
2023/06/17 01:56:13;;;;;;;9.00;4.22;;;;;;;14.50;57.92;101460.41;4945151;28;20540;-75
2023/06/17 01:58:59;;;;;;;5.85;4.22;;;;;;;14.46;58.40;101464.97;4936365;28;20479;-76
2023/06/17 02:01:44;;;;;;;6.50;4.13;;;;;;;14.42;58.47;101474.81;4944816;28;20055;-75
2023/06/17 02:04:30;;;;;;;6.97;3.97;;;;;;;14.38;58.49;101456.41;4947412;28;20051;-76
2023/06/17 02:07:18;;;;;;;8.05;4.10;;;;;;;14.37;59.08;101463.50;4959623;28;20063;-76
2023/06/17 02:10:04;;;;;;;5.80;4.22;;;;;;;14.33;59.02;101463.66;4949217;28;20479;-76
2023/06/17 02:12:50;;;;;;;9.68;4.75;;;;;;;14.27;58.90;101460.31;4950728;28;20060;-73
2023/06/17 02:15:35;;;;;;;10.32;4.60;;;;;;;14.25;59.05;101455.97;4951274;28;20088;-74
2023/06/17 02:18:22;;;;;;;6.32;4.63;;;;;;;14.20;59.76;101452.63;4960247;28;20060;-74
2023/06/17 02:21:07;;;;;;;5.93;4.78;;;;;;;14.14;59.73;101446.63;4956153;28;20052;-74
2023/06/17 02:23:53;;;;;;;9.30;5.63;;;;;;;14.09;59.94;101442.44;4945782;28;20047;-75
2023/06/17 02:26:39;;;;;;;7.43;5.18;;;;;;;14.05;59.85;101441.66;4960719;28;20533;-74
2023/06/17 02:29:25;;;;;;;6.25;4.88;;;;;;;14.02;59.78;101443.53;4939287;28;20069;-74
2023/06/17 02:32:12;;;;;;;8.52;5.13;;;;;;;13.99;60.32;101439.22;4954048;28;20143;-74
2023/06/17 02:34:57;;;;;;;6.25;4.57;;;;;;;13.98;60.30;101442.78;4958371;28;20048;-74
2023/06/17 02:37:44;;;;;;;5.97;4.55;;;;;;;13.96;60.70;101441.97;4948708;28;20060;-74
2023/06/17 02:40:29;;;;;;;6.25;4.72;;;;;;;13.92;61.38;101435.91;4935326;28;20064;-74
2023/06/17 02:43:14;;;;;;;7.68;4.88;;;;;;;13.90;61.11;101435.09;4948950;28;20932;-74
2023/06/17 02:46:00;;;;;;;8.82;4.68;;;;;;;13.89;61.59;101437.81;4958574;28;20068;-74
2023/06/17 02:48:45;;;;;;;7.15;4.47;;;;;;;13.83;61.58;101436.25;4940196;28;20052;-75
2023/06/17 02:51:32;;;;;;;5.78;4.70;;;;;;;13.79;62.01;101437.25;4949259;28;20548;-74
2023/06/17 02:54:17;;;;;;;6.15;4.15;;;;;;;13.74;62.28;101441.84;4960215;28;20055;-74
2023/06/17 02:57:03;;;;;;;7.05;4.60;;;;;;;13.69;62.51;101439.38;4948305;28;20063;-74
2023/06/17 02:59:49;;;;;;;7.00;4.65;;;;;;;13.65;62.28;101435.97;4959059;28;20517;-77
2023/06/17 03:02:34;;;;;;;7.55;5.07;;;;;;;13.63;62.72;101445.72;4953544;28;20047;-77
2023/06/17 03:05:20;;;;;;;8.10;5.03;;;;;;;13.59;62.93;101430.00;4949447;28;20895;-77
2023/06/17 03:08:08;;;;;;;7.70;5.03;;;;;;;13.51;63.17;101431.13;4961523;28;20055;-77
2023/06/17 03:10:53;;;;;;;7.35;4.90;;;;;;;13.49;63.75;101440.91;4961137;28;20039;-77
2023/06/17 03:13:39;;;;;;;9.95;5.53;;;;;;;13.46;63.93;101434.84;4963351;28;20890;-77
2023/06/17 03:16:34;;;;;;;8.48;4.85;;;;;;;13.43;64.60;101438.44;4953944;28;20512;-77
2023/06/17 03:19:22;;;;;;;7.43;5.15;;;;;;;13.40;65.17;101438.56;4946385;28;20510;-77
2023/06/17 03:22:07;;;;;;;8.88;5.07;;;;;;;13.38;65.69;101436.84;4944998;28;20060;-77
2023/06/17 03:24:56;;;;;;;7.45;5.25;;;;;;;13.37;65.54;101433.31;4953333;28;20618;-78
2023/06/17 03:27:42;;;;;;;7.20;5.28;;;;;;;13.35;65.61;101436.03;4960008;28;20060;-77
2023/06/17 03:30:27;;;;;;;7.65;5.40;;;;;;;13.34;65.91;101433.41;4960012;28;20134;-78
2023/06/17 03:33:13;;;;;;;8.43;5.93;;;;;;;13.32;66.02;101430.81;4951574;28;20068;-78
2023/06/17 03:35:59;;;;;;;5.90;5.30;;;;;;;13.32;65.74;101428.16;4963036;28;20119;-78
2023/06/17 03:38:45;;;;;;;6.80;5.15;;;;;;;13.36;66.22;101429.81;4960625;28;20052;-77
2023/06/17 03:41:31;;;;;;;7.43;5.32;;;;;;;13.39;65.62;101433.25;4948298;28;20115;-77
2023/06/17 03:44:18;;;;;;;7.82;5.50;;;;;;;13.43;65.45;101432.28;4947690;28;20059;-77
2023/06/17 03:47:04;;;;;;;6.68;5.63;;;;;;;13.46;65.26;101432.19;4961621;28;20174;-77
2023/06/17 03:49:49;;;;;;;8.88;5.90;;;;;;;13.54;64.93;101432.78;4957670;28;20052;-77
2023/06/17 03:52:35;;;;;;;8.10;5.85;;;;;;;13.72;64.25;101439.28;4948068;28;20135;-76
2023/06/17 03:55:22;;;;;;;7.65;5.47;;;;;;;13.83;63.80;101428.28;4948771;28;20059;-77
2023/06/17 03:58:07;;;;;;;10.18;6.03;;;;;;;13.87;64.16;101432.56;4950108;28;20154;-78
2023/06/17 04:00:53;;;;;;;6.82;6.13;;;;;;;13.84;64.61;101429.16;4959394;28;20112;-77
2023/06/17 04:03:40;;;;;;;7.18;6.03;;;;;;;13.86;64.48;101427.31;4958552;28;20051;-76
2023/06/17 04:06:28;;;;;;;6.38;5.38;;;;;;;13.91;64.83;101420.94;4962645;28;20059;-75
2023/06/17 04:09:14;;;;;;;8.18;6.53;;;;;;;14.10;63.88;101422.91;4952521;28;20052;-75
2023/06/17 04:12:00;;;;;;;7.03;5.75;;;;;;;14.12;63.87;101419.31;4949778;28;20525;-77
2023/06/17 04:14:45;;;;;;;7.60;6.45;;;;;;;14.15;63.91;101431.59;4948714;28;20056;-77
2023/06/17 04:17:30;;;;;;;7.63;5.82;;;;;;;14.16;64.00;101422.72;4959712;28;20681;-77
2023/06/17 04:20:15;;;;;;;9.27;6.20;;;;;;;14.20;64.14;101426.13;4941966;28;20059;-77
2023/06/17 04:23:01;;;;;;;7.18;5.25;;;;;;;14.25;63.94;101432.09;4963721;28;20067;-77
2023/06/17 04:25:48;;;;;;;8.05;5.57;;;;;;;14.28;63.92;101422.28;4956107;28;20152;-76
2023/06/17 04:28:34;;;;;;;7.20;5.65;;;;;;;14.37;63.88;101418.41;4958925;28;20056;-75
2023/06/17 04:31:19;;;;;;;6.88;5.53;;;;;;;14.45;63.79;101420.78;4959579;28;20059;-74
2023/06/17 04:34:05;;;;;;;8.60;6.15;;;;;;;14.53;63.62;101428.47;4960357;28;20052;-75
2023/06/17 04:36:56;;;;;;;7.22;5.85;;;;;;;14.65;63.43;101427.97;4950338;28;20427;-77
2023/06/17 04:39:44;;;;;;;7.43;5.80;;;;;;;14.74;63.37;101422.38;4959266;28;20060;-75
2023/06/17 04:42:33;;;;;;;8.75;5.53;;;;;;;14.85;62.85;101424.59;4961597;28;20055;-75
2023/06/17 04:45:20;;;;;;;8.65;5.47;;;;;;;14.98;62.96;101413.50;4962018;28;20067;-75
2023/06/17 04:48:12;;;;;;;7.50;5.68;;;;;;;15.10;63.49;101417.44;4944560;28;20166;-77
2023/06/17 04:50:58;;;;;;;9.77;6.05;;;;;;;15.24;63.41;101428.38;4941117;28;20772;-76
2023/06/17 04:53:44;;;;;;;8.02;6.18;;;;;;;15.35;63.32;101419.97;4949779;28;20078;-76
2023/06/17 04:56:29;;;;;;;7.38;5.75;;;;;;;15.45;63.22;101423.97;4953464;28;20055;-75
2023/06/17 04:59:15;;;;;;;9.82;6.18;;;;;;;15.60;63.11;101418.97;4967911;28;20060;-75
2023/06/17 05:02:01;;;;;;;9.40;6.43;;;;;;;15.74;63.20;101426.34;4963117;28;20071;-74
2023/06/17 05:04:46;;;;;;;9.52;6.80;;;;;;;15.91;62.71;101428.31;4965183;28;20068;-74
2023/06/17 05:07:33;;;;;;;10.32;6.40;;;;;;;16.07;62.75;101428.50;4955708;28;20066;-73
2023/06/17 05:10:18;;;;;;;9.35;6.55;;;;;;;16.22;62.60;101426.97;4952249;28;20055;-74
2023/06/17 05:13:06;;;;;;;8.27;6.45;;;;;;;16.41;62.40;101422.53;4947214;28;20052;-75
2023/06/17 05:15:53;;;;;;;8.10;6.32;;;;;;;16.73;62.55;101429.94;4962122;28;20182;-74
2023/06/17 05:18:38;;;;;;;8.40;7.45;;;;;;;17.25;62.03;101425.75;4966846;28;20101;-73
2023/06/17 05:21:25;;;;;;;9.90;6.97;;;;;;;19.29;58.36;101424.78;4957054;28;20070;-74
2023/06/17 05:24:13;;;;;;;9.18;6.90;;;;;;;19.88;56.74;101422.22;4969599;28;20055;-73
2023/06/17 05:26:58;;;;;;;9.90;7.30;;;;;;;20.96;55.37;101416.47;4969813;28;20055;-74
2023/06/17 05:29:45;;;;;;;10.20;6.30;;;;;;;21.53;53.59;101421.59;4964484;28;20056;-75
2023/06/17 05:32:30;;;;;;;10.73;6.88;;;;;;;22.77;50.95;101422.91;4952018;28;20892;-77
2023/06/17 05:35:15;;;;;;;9.52;6.28;;;;;;;25.03;46.63;101418.16;4965229;28;20052;-76
2023/06/17 05:38:01;;;;;;;10.77;6.30;;;;;;;26.84;42.67;101418.84;4966438;28;20055;-76
2023/06/17 05:40:48;;;;;;;11.25;6.43;;;;;;;28.41;39.59;101418.69;4968017;28;20060;-77
2023/06/17 05:43:34;;;;;;;12.35;5.75;;;;;;;29.73;36.47;101414.63;4949988;28;20066;-75
2023/06/17 05:46:19;;;;;;;9.70;5.57;;;;;;;30.72;34.65;101414.31;4974626;28;20059;-72
2023/06/17 05:49:04;;;;;;;6.70;5.03;;;;;;;31.71;32.56;101411.69;4954720;28;20164;-73
2023/06/17 05:51:49;;;;;;;5.75;5.00;;;;;;;32.57;31.23;101410.25;4968842;28;20781;-76
2023/06/17 05:54:35;;;;;;;8.88;5.03;;;;;;;33.33;29.74;101413.19;4971950;28;20055;-75
2023/06/17 05:57:21;;;;;;;7.32;5.57;;;;;;;33.92;28.88;101414.38;4958834;28;20111;-78
2023/06/17 06:00:08;;;;;;;5.60;4.80;;;;;;;34.48;27.39;101413.03;4967711;28;20067;-72
2023/06/17 06:03:01;;;;;;;8.52;4.97;;;;;;;34.97;26.58;101419.72;4946721;28;20060;-76
2023/06/17 06:05:46;;;;;;;7.03;5.10;;;;;;;35.21;26.16;101417.63;4948938;28;20142;-75
2023/06/17 06:08:32;;;;;;;6.50;5.55;;;;;;;35.47;25.93;101436.22;4964447;28;20095;-76
2023/06/17 06:11:19;;;;;;;11.80;5.63;;;;;;;35.67;25.33;101427.31;4965701;28;20051;-74
2023/06/17 06:14:05;;;;;;;7.40;5.10;;;;;;;35.79;25.45;101428.44;4964766;28;20047;-75
2023/06/17 06:16:51;;;;;;;5.80;4.95;;;;;;;35.80;24.89;101421.09;4960098;28;20072;-75
2023/06/17 06:19:36;;;;;;;7.47;5.57;;;;;;;35.28;24.34;101422.13;4961612;28;20055;-75
2023/06/17 06:22:21;;;;;;;6.25;5.53;;;;;;;33.39;26.30;101412.47;4964598;28;20059;-75
2023/06/17 06:25:07;;;;;;;8.70;5.20;;;;;;;30.34;30.43;101422.81;4948345;28;20059;-75
2023/06/17 06:27:53;;;;;;;8.00;5.95;;;;;;;28.01;33.45;101431.50;4951001;28;20511;-76
2023/06/17 06:30:43;;;;;;;6.53;5.53;;;;;;;26.23;36.66;101423.31;4944149;28;20060;-75
2023/06/17 06:33:28;;;;;;;6.38;5.78;;;;;;;24.99;39.15;101430.16;4948415;28;20808;-74
2023/06/17 06:36:14;;;;;;;6.88;5.80;;;;;;;24.02;41.29;101440.47;4963302;28;20048;-76
2023/06/17 06:39:01;;;;;;;10.05;6.45;;;;;;;23.32;42.46;101446.72;4961531;28;20135;-75
2023/06/17 06:41:47;;;;;;;9.98;6.20;;;;;;;22.81;44.05;101443.22;4948705;28;21002;-74
2023/06/17 06:44:51;;;;;;;8.47;6.47;;;;;;;22.42;45.10;101437.06;4950612;28;20059;-74
2023/06/17 06:47:36;;;;;;;8.85;6.90;;;;;;;22.16;45.56;101439.72;4948284;28;20067;-74
2023/06/17 06:50:22;;;;;;;8.63;6.97;;;;;;;21.99;47.03;101439.09;4957924;28;20055;-75
2023/06/17 06:53:09;;;;;;;8.52;6.53;;;;;;;21.77;47.30;101434.34;4969631;28;20067;-75
2023/06/17 06:55:55;;;;;;;10.98;6.95;;;;;;;21.62;47.33;101441.59;4952043;28;20869;-77
2023/06/17 06:58:40;;;;;;;9.35;6.75;;;;;;;21.56;48.34;101450.03;4953807;28;20056;-77
2023/06/17 07:01:29;;;;;;;7.90;5.95;;;;;;;21.50;48.06;101440.56;4961570;28;20499;-73
2023/06/17 07:04:16;;;;;;;7.43;5.68;;;;;;;21.50;47.39;101445.09;4980908;28;20082;-74
2023/06/17 07:07:02;;;;;;;8.43;4.95;;;;;;;21.49;46.12;101446.91;4971096;28;20051;-76
2023/06/17 07:09:53;;;;;;;8.82;4.85;;;;;;;21.50;45.00;101437.03;4965175;28;20055;-73
2023/06/17 07:12:38;;;;;;;10.48;4.80;;;;;;;21.51;44.56;101436.94;4963834;28;20063;-74
2023/06/17 07:15:23;;;;;;;9.45;5.80;;;;;;;21.53;45.57;101443.06;4952189;28;20063;-74
2023/06/17 07:18:08;;;;;;;10.43;5.70;;;;;;;21.56;45.88;101437.50;4962508;28;20107;-75
2023/06/17 07:20:54;;;;;;;9.05;5.43;;;;;;;21.63;46.03;101437.94;4948870;28;20051;-74
2023/06/17 07:23:39;;;;;;;6.05;4.85;;;;;;;21.72;44.99;101447.19;4943670;28;20064;-71
2023/06/17 07:26:25;;;;;;;9.52;4.05;;;;;;;21.78;43.73;101441.41;4941399;28;20060;-72
2023/06/17 07:29:12;;;;;;;7.60;4.30;;;;;;;21.88;42.92;101447.00;4946904;28;20134;-73
2023/06/17 07:31:57;;;;;;;6.20;4.60;;;;;;;21.92;43.14;101439.59;4966471;28;20103;-73
2023/06/17 07:34:43;;;;;;;7.88;4.95;;;;;;;22.00;43.97;101431.88;4972954;28;20063;-76
2023/06/17 07:37:28;;;;;;;8.85;5.03;;;;;;;22.13;44.23;101437.28;4953901;28;20099;-73
2023/06/17 07:40:15;;;;;;;6.30;4.85;;;;;;;22.23;43.76;101437.47;4931310;28;20068;-73
2023/06/17 07:43:00;;;;;;;8.32;4.72;;;;;;;22.31;43.98;101435.09;4942698;28;20059;-73
2023/06/17 07:45:46;;;;;;;8.25;4.47;;;;;;;22.44;43.83;101427.94;4950697;28;20064;-75
2023/06/17 07:48:32;;;;;;;9.02;4.70;;;;;;;22.61;43.33;101433.91;4950824;28;20677;-74
2023/06/17 07:51:17;;;;;;;6.95;4.47;;;;;;;22.77;42.85;101431.84;4949545;28;20503;-74
2023/06/17 07:54:05;;;;;;;7.63;4.50;;;;;;;22.89;40.95;101434.59;4952752;28;20448;-73
2023/06/17 07:56:51;;;;;;;6.10;4.22;;;;;;;22.95;40.67;101426.06;4957999;28;20127;-74
2023/06/17 07:59:36;;;;;;;6.43;4.35;;;;;;;23.08;40.44;101434.09;4945926;28;20150;-77
2023/06/17 08:02:21;;;;;;;7.70;4.10;;;;;;;23.15;39.46;101421.03;4949358;28;20048;-75
2023/06/17 08:05:08;;;;;;;5.82;4.25;;;;;;;23.24;40.09;101423.06;4948142;28;20524;-77
2023/06/17 08:07:53;;;;;;;8.23;4.43;;;;;;;23.43;39.36;101419.88;4947320;28;20068;-76
2023/06/17 08:10:39;;;;;;;8.02;4.03;;;;;;;23.52;38.84;101424.53;4949941;28;20143;-77
2023/06/17 08:13:24;;;;;;;10.07;3.80;;;;;;;23.55;37.29;101416.22;4947462;28;20778;-77
2023/06/17 08:16:09;;;;;;;6.18;3.65;;;;;;;23.61;38.14;101416.72;4948454;28;20048;-77
2023/06/17 08:18:55;;;;;;;9.10;3.80;;;;;;;23.69;37.16;101419.69;4937671;28;20056;-78
2023/06/17 08:21:44;;;;;;;6.75;3.95;;;;;;;23.80;37.43;101419.72;4950231;28;20063;-77
2023/06/17 08:24:30;;;;;;;6.85;3.50;;;;;;;23.89;36.98;101415.47;4942538;28;20055;-77
2023/06/17 08:27:15;;;;;;;4.63;3.80;;;;;;;23.99;36.50;101416.50;4947113;28;20510;-75
2023/06/17 08:30:00;;;;;;;4.88;3.78;;;;;;;24.10;36.43;101417.47;4946484;28;20051;-72
2023/06/17 08:32:46;;;;;;;6.60;3.90;;;;;;;24.25;36.22;101412.72;4944799;28;20075;-72
2023/06/17 08:35:31;;;;;;;7.20;3.80;;;;;;;24.42;35.83;101408.69;4948824;28;20055;-72
2023/06/17 08:38:16;;;;;;;8.05;3.50;;;;;;;24.54;35.38;101410.34;4947799;28;20047;-72
2023/06/17 08:41:01;;;;;;;7.40;3.75;;;;;;;24.61;34.94;101405.34;4939885;28;20113;-72
2023/06/17 08:43:51;;;;;;;7.20;3.67;;;;;;;24.65;35.00;101399.56;4948989;28;20059;-72
2023/06/17 08:46:38;;;;;;;5.13;3.42;;;;;;;24.75;35.01;101402.41;4945048;28;20055;-72
2023/06/17 08:49:26;;;;;;;6.85;3.67;;;;;;;24.89;34.93;101405.78;4941280;28;20088;-71
2023/06/17 08:52:15;;;;;;;6.03;3.80;;;;;;;25.03;34.82;101400.13;4947688;28;20056;-71
2023/06/17 08:55:01;;;;;;;8.77;3.78;;;;;;;25.18;34.75;101397.97;4946004;28;20124;-71
2023/06/17 08:57:51;;;;;;;6.90;3.72;;;;;;;25.33;34.49;101401.22;4951800;28;20051;-71
2023/06/17 09:00:36;;;;;;;5.03;3.50;;;;;;;25.39;33.74;101395.31;4946695;28;20100;-72
2023/06/17 09:03:25;;;;;;;6.75;3.70;;;;;;;25.49;33.10;101400.81;4946100;28;20059;-71
2023/06/17 09:06:17;;;;;;;8.50;3.97;;;;;;;25.51;32.82;101398.84;4946177;28;20584;-72
2023/06/17 09:09:03;;;;;;;6.60;3.55;;;;;;;25.58;32.36;101391.94;4941472;28;20134;-73
2023/06/17 09:11:51;;;;;;;5.63;3.70;;;;;;;25.62;32.24;101400.63;4948887;28;20059;-73
2023/06/17 09:14:44;;;;;;;7.70;3.35;;;;;;;25.72;32.16;101396.13;4946354;28;20048;-72
2023/06/17 09:17:32;;;;;;;11.93;3.80;;;;;;;25.85;32.60;101397.78;4947354;28;20606;-73
2023/06/17 09:20:17;;;;;;;5.63;3.47;;;;;;;25.98;32.10;101401.13;4949378;28;20710;-73
2023/06/17 09:23:03;;;;;;;5.10;3.53;;;;;;;26.05;32.18;101398.72;4951316;28;21135;-72
2023/06/17 09:26:01;;;;;;;5.07;3.10;;;;;;;26.17;31.49;101400.38;4949604;28;20060;-72
2023/06/17 09:28:47;;;;;;;5.30;3.60;;;;;;;26.31;31.25;101401.88;4958015;28;20056;-74
2023/06/17 09:31:46;;;;;;;7.00;3.25;;;;;;;26.41;30.14;101407.31;4951698;28;20060;-74
2023/06/17 09:34:32;;;;;;;5.50;3.30;;;;;;;26.52;29.89;101409.03;4944979;28;20056;-72
2023/06/17 09:37:17;;;;;;;7.18;2.80;;;;;;;26.59;30.00;101412.06;4951658;28;20064;-73
2023/06/17 09:40:06;;;;;;;7.32;3.28;;;;;;;26.70;29.38;101403.84;4948103;28;20567;-73
2023/06/17 09:42:52;;;;;;;6.57;3.35;;;;;;;26.74;29.31;101409.81;4947749;28;20071;-73
2023/06/17 09:45:38;;;;;;;8.20;3.20;;;;;;;26.83;29.15;101410.88;4952092;28;20055;-71
2023/06/17 09:48:24;;;;;;;80.80;7.10;;;;;;;26.82;29.33;101410.00;4950372;28;20056;-72
2023/06/17 09:51:12;;;;;;;6.70;3.30;;;;;;;26.78;29.30;101408.59;4946548;28;20055;-73
2023/06/17 09:53:58;;;;;;;9.48;3.38;;;;;;;26.74;29.86;101404.41;4950541;28;20055;-73
2023/06/17 09:56:44;;;;;;;4.95;3.63;;;;;;;26.78;29.43;101409.44;4951661;28;20138;-73
2023/06/17 09:59:31;;;;;;;6.78;3.60;;;;;;;26.87;29.18;101409.59;4950844;28;20104;-72
2023/06/17 10:02:19;;;;;;;5.13;3.33;;;;;;;26.91;29.70;101402.91;4950454;28;20051;-71
2023/06/17 10:05:10;;;;;;;7.00;3.13;;;;;;;27.06;28.84;101397.94;4950818;28;20119;-71
2023/06/17 10:07:58;;;;;;;7.07;3.03;;;;;;;27.13;28.41;101394.53;4950849;28;20974;-72
2023/06/17 10:10:44;;;;;;;5.70;3.03;;;;;;;27.25;28.41;101402.53;4950798;28;20063;-71
2023/06/17 10:13:39;;;;;;;7.40;3.30;;;;;;;27.30;27.73;101400.22;4949292;28;20071;-72
2023/06/17 10:16:28;;;;;;;6.28;3.20;;;;;;;27.34;28.06;101400.78;4954303;28;20059;-73
2023/06/17 10:19:19;;;;;;;6.20;2.97;;;;;;;27.35;28.05;101394.38;4948417;28;20508;-72
2023/06/17 10:22:11;;;;;;;5.20;3.13;;;;;;;27.49;28.09;101390.41;4948420;28;20096;-72
2023/06/17 10:24:57;;;;;;;5.60;3.20;;;;;;;27.57;27.65;101396.81;4949646;28;20508;-72
2023/06/17 10:27:44;;;;;;;7.35;3.30;;;;;;;27.59;27.88;101397.53;4939834;28;20101;-73
2023/06/17 10:30:31;;;;;;;7.32;3.05;;;;;;;27.64;27.63;101386.25;4953713;28;20841;-74
2023/06/17 10:33:29;;;;;;;6.55;3.10;;;;;;;27.71;27.29;101384.66;4960764;28;20060;-73
2023/06/17 10:36:15;;;;;;;7.60;3.08;;;;;;;27.78;26.62;101392.22;4957035;28;20119;-72
2023/06/17 10:39:05;;;;;;;7.95;3.00;;;;;;;27.77;26.86;101376.97;4954208;28;20859;-72
2023/06/17 10:41:55;;;;;;;6.35;3.00;;;;;;;27.80;26.75;101376.66;4952820;28;20930;-75
2023/06/17 10:44:42;;;;;;;7.05;3.00;;;;;;;27.90;27.20;101378.34;4950821;28;20092;-75
2023/06/17 10:47:29;;;;;;;4.20;2.88;;;;;;;28.04;26.30;101365.31;4950439;28;20052;-75
2023/06/17 10:50:20;;;;;;;4.78;2.60;;;;;;;28.13;26.01;101366.31;4963350;28;20052;-74
2023/06/17 10:53:06;;;;;;;5.90;3.15;;;;;;;28.20;26.27;101370.13;4950334;28;20071;-73
2023/06/17 10:55:51;;;;;;;7.75;3.15;;;;;;;28.32;25.87;101366.22;4951073;28;20052;-73
2023/06/17 10:58:45;;;;;;;4.72;2.78;;;;;;;28.38;25.84;101367.47;4950692;28;20052;-73
2023/06/17 11:01:31;;;;;;;6.97;2.72;;;;;;;28.44;25.92;101356.00;4942935;28;20051;-72
2023/06/17 11:04:17;;;;;;;7.90;3.08;;;;;;;28.49;25.39;101356.44;4948768;28;20067;-72
2023/06/17 11:07:04;;;;;;;4.05;2.78;;;;;;;28.58;25.33;101353.81;4961432;28;20100;-72
2023/06/17 11:09:50;;;;;;;8.25;3.00;;;;;;;28.64;24.81;101350.50;4952732;28;20055;-74
2023/06/17 11:12:37;;;;;;;4.18;2.72;;;;;;;28.74;25.09;101354.03;4950187;28;20063;-73
2023/06/17 11:15:22;;;;;;;6.18;2.50;;;;;;;28.89;23.98;101353.47;4955180;28;20043;-71
2023/06/17 11:18:07;;;;;;;4.00;2.75;;;;;;;28.98;23.60;101345.28;4946592;28;20055;-74
2023/06/17 11:20:53;;;;;;;5.32;2.83;;;;;;;29.04;24.30;101343.78;4945407;28;20059;-72
2023/06/17 11:23:43;;;;;;;4.38;2.50;;;;;;;29.19;24.26;101340.50;4959761;28;20198;-75
2023/06/17 11:26:29;;;;;;;4.15;2.72;;;;;;;29.29;23.21;101347.56;4955413;28;20052;-72
2023/06/17 11:29:15;;;;;;;4.78;2.63;;;;;;;29.28;23.31;101326.84;4958545;28;20067;-70
2023/06/17 11:32:04;;;;;;;5.68;3.17;;;;;;;29.35;23.50;101337.09;4953109;28;20108;-72
2023/06/17 11:34:51;;;;;;;5.35;2.75;;;;;;;29.49;22.62;101325.69;4956861;28;20059;-73
2023/06/17 11:37:39;;;;;;;3.53;2.30;;;;;;;29.51;21.38;101328.22;4950685;28;20059;-72
2023/06/17 11:40:24;;;;;;;6.40;2.40;;;;;;;29.52;20.69;101325.34;4946185;28;20055;-73
2023/06/17 11:43:10;;;;;;;3.00;2.22;;;;;;;29.58;21.11;101319.28;4947998;28;20620;-72
2023/06/17 11:45:57;;;;;;;3.90;2.30;;;;;;;29.67;21.77;101319.31;4947488;28;20104;-72
2023/06/17 11:48:46;;;;;;;4.47;2.20;;;;;;;29.84;20.68;101315.66;4949180;28;20138;-73
2023/06/17 11:51:31;;;;;;;5.20;2.22;;;;;;;29.98;20.75;101316.13;4947874;28;20044;-72
2023/06/17 11:54:22;;;;;;;4.55;2.08;;;;;;;30.09;19.23;101312.25;4944583;28;20071;-73
2023/06/17 11:57:07;;;;;;;2.90;2.22;;;;;;;30.11;19.56;101302.06;4947382;28;20580;-73
2023/06/17 12:00:04;;;;;;;3.13;2.30;;;;;;;30.23;19.30;101305.31;4947453;28;20056;-73
2023/06/17 12:02:57;;;;;;;2.60;2.10;;;;;;;30.32;18.75;101294.31;4948521;28;20055;-74
2023/06/17 12:05:43;;;;;;;3.97;2.17;;;;;;;30.27;18.90;101301.25;4953456;28;20063;-72
2023/06/17 12:08:36;;;;;;;5.80;2.60;;;;;;;30.16;19.92;101300.56;4961516;28;20413;-73
2023/06/17 12:11:30;;;;;;;5.40;2.30;;;;;;;30.32;19.45;101299.75;4947187;28;20056;-74
2023/06/17 12:14:15;;;;;;;;;;;;;;;30.45;18.89;101295.72;4949989;28;20056;-74
2023/06/17 12:17:01;;;;;;;3.83;2.17;;;;;;;30.41;18.67;101294.31;4955702;28;19926;-73
2023/06/17 12:19:47;;;;;;;3.10;1.85;;;;;;;30.48;17.34;101298.06;4951251;28;20047;-72
2023/06/17 12:22:32;;;;;;;2.90;2.05;;;;;;;30.52;17.58;101289.44;4958211;28;20428;-72
2023/06/17 12:25:18;;;;;;;3.05;2.17;;;;;;;30.71;17.99;101283.84;4948409;28;20086;-73
2023/06/17 12:28:05;;;;;;;3.47;2.33;;;;;;;30.87;17.36;101283.03;4955978;28;20749;-72
2023/06/17 12:30:50;;;;;;;3.47;2.20;;;;;;;30.93;16.98;101285.91;4949878;28;20055;-74
2023/06/17 12:33:37;;;;;;;3.17;2.03;;;;;;;31.07;17.62;101284.38;4952510;28;20093;-74
2023/06/17 12:36:23;;;;;;;3.47;2.20;;;;;;;31.33;17.95;101279.78;4952664;28;20063;-74
2023/06/17 12:39:08;;;;;;;5.13;2.40;;;;;;;31.54;17.46;101271.06;4951625;28;20055;-74
2023/06/17 12:41:54;;;;;;;8.25;2.60;;;;;;;31.65;17.40;101278.81;4955724;28;20059;-73
2023/06/17 12:44:40;;;;;;;4.60;2.30;;;;;;;31.54;18.62;101280.06;4950060;28;20139;-73
2023/06/17 12:47:26;;;;;;;4.80;2.15;;;;;;;31.53;18.10;101275.66;4956247;28;20060;-74
2023/06/17 12:50:12;;;;;;;3.70;2.20;;;;;;;31.52;18.05;101270.38;4951842;28;20044;-73
2023/06/17 12:52:58;;;;;;;2.90;2.38;;;;;;;31.62;17.65;101262.84;4951988;28;20204;-72
2023/06/17 12:55:43;;;;;;;4.10;2.50;;;;;;;31.77;17.51;101271.19;4950068;28;20244;-74